Time;durP1;ratioP1;P1;durP2;ratioP2;P2;SDS_P1;SDS_P2;PMS_P1;PMS_P2;Temp;Humidity;BMP_temperature;BMP_pressure;BME280_temperature;BME280_humidity;BME280_pressure;Samples;Min_cycle;Max_cycle;Signal;HPM_P1;HPM_P2
2022/07/30 00:02:08;;;;;;;10.80;5.78;;;;;;;;;;5022391;28;20075;-64
2022/07/30 00:04:36;;;;;;;11.98;5.80;;;;;;;;;;5007041;28;20143;-64
2022/07/30 00:07:03;;;;;;;9.45;6.05;;;;;;;;;;5022240;28;20056;-64
2022/07/30 00:09:30;;;;;;;12.30;6.20;;;;;;;;;;5020641;28;20719;-64
2022/07/30 00:11:58;;;;;;;8.52;5.65;;;;;;;;;;5023349;28;20049;-64
2022/07/30 00:14:25;;;;;;;10.73;6.18;;;;;;;;;;5022490;28;20053;-64
2022/07/30 00:16:52;;;;;;;11.50;6.63;;;;;;;;;;5024829;28;20049;-64
2022/07/30 00:19:21;;;;;;;7.35;6.30;;;;;;;;;;5022471;28;20056;-65
2022/07/30 00:21:48;;;;;;;12.02;6.30;;;;;;;;;;5022841;28;20049;-64
2022/07/30 00:24:16;;;;;;;7.32;5.57;;;;;;;;;;5023711;28;20057;-64
2022/07/30 00:26:43;;;;;;;10.05;5.70;;;;;;;;;;5022015;28;20045;-64
2022/07/30 00:29:11;;;;;;;11.35;6.10;;;;;;;;;;5021808;28;20046;-64
2022/07/30 00:31:38;;;;;;;10.05;6.28;;;;;;;;;;5025624;28;20056;-64
2022/07/30 00:34:05;;;;;;;8.07;6.03;;;;;;;;;;5003645;28;20061;-64
2022/07/30 00:36:34;;;;;;;11.63;6.60;;;;;;;;;;5022705;28;20061;-64
2022/07/30 00:39:01;;;;;;;10.07;6.20;;;;;;;;;;5022343;28;20092;-64
2022/07/30 00:41:29;;;;;;;9.32;6.40;;;;;;;;;;5021293;28;20080;-64
2022/07/30 00:43:56;;;;;;;9.23;6.03;;;;;;;;;;5019522;28;20054;-65
2022/07/30 00:46:23;;;;;;;11.45;6.13;;;;;;;;;;5016590;28;20099;-64
2022/07/30 00:48:50;;;;;;;9.45;6.28;;;;;;;;;;5016852;28;20054;-64
2022/07/30 00:51:18;;;;;;;9.57;6.22;;;;;;;;;;5023155;28;20493;-64
2022/07/30 00:53:46;;;;;;;9.60;6.13;;;;;;;;;;5019489;28;20060;-65
2022/07/30 00:56:13;;;;;;;7.38;5.93;;;;;;;;;;5020726;28;20041;-64
2022/07/30 00:58:41;;;;;;;9.27;6.25;;;;;;;;;;5020923;28;20057;-64
2022/07/30 01:01:08;;;;;;;6.68;5.07;;;;;;;;;;5025158;28;20397;-64
2022/07/30 01:03:35;;;;;;;9.45;6.00;;;;;;;;;;5004747;28;20049;-64
2022/07/30 01:06:02;;;;;;;7.72;5.38;;;;;;;;;;5022849;28;20099;-64
2022/07/30 01:08:29;;;;;;;9.13;5.60;;;;;;;;;;5020295;28;20063;-64
2022/07/30 01:10:58;;;;;;;9.80;5.90;;;;;;;;;;5022835;28;20707;-64
2022/07/30 01:13:25;;;;;;;10.15;6.68;;;;;;;;;;5019612;28;20057;-64
2022/07/30 01:15:52;;;;;;;9.98;7.18;;;;;;;;;;5022037;28;20084;-65
2022/07/30 01:18:20;;;;;;;12.13;8.10;;;;;;;;;;5023927;28;20118;-65
2022/07/30 01:20:49;;;;;;;10.85;7.35;;;;;;;;;;5006638;28;20053;-64
2022/07/30 01:23:21;;;;;;;11.13;7.03;;;;;;;;;;4998332;28;20103;-64
2022/07/30 01:25:56;;;;;;;9.48;6.72;;;;;;;;;;5022160;28;20118;-64
2022/07/30 01:28:25;;;;;;;9.07;6.07;;;;;;;;;;4994538;28;20053;-64
2022/07/30 01:30:53;;;;;;;12.13;6.45;;;;;;;;;;5024694;28;20528;-64
2022/07/30 01:33:21;;;;;;;9.52;6.65;;;;;;;;;;5026700;28;20056;-64
2022/07/30 01:35:49;;;;;;;9.88;6.40;;;;;;;;;;5026504;28;20096;-64
2022/07/30 01:38:20;;;;;;;8.85;6.57;;;;;;;;;;5025155;28;20709;-64
2022/07/30 01:40:48;;;;;;;10.10;7.05;;;;;;;;;;5022080;28;20053;-64
2022/07/30 01:43:18;;;;;;;10.93;6.50;;;;;;;;;;5018767;28;20046;-64
2022/07/30 01:45:46;;;;;;;12.73;7.25;;;;;;;;;;5024425;28;20054;-64
2022/07/30 01:48:15;;;;;;;15.82;7.03;;;;;;;;;;5023072;28;20049;-64
2022/07/30 01:50:45;;;;;;;9.70;6.43;;;;;;;;;;5021056;28;20054;-64
2022/07/30 01:53:15;;;;;;;9.00;7.05;;;;;;;;;;5025698;28;20127;-64
2022/07/30 01:55:42;;;;;;;10.70;7.00;;;;;;;;;;5000873;28;20057;-64
2022/07/30 01:58:11;;;;;;;10.35;7.22;;;;;;;;;;5017709;28;20057;-64
2022/07/30 02:00:42;;;;;;;13.77;7.40;;;;;;;;;;5026454;28;20484;-64
2022/07/30 02:03:10;;;;;;;11.63;7.75;;;;;;;;;;5025654;28;20053;-64
2022/07/30 02:05:38;;;;;;;12.10;7.00;;;;;;;;;;5025148;28;20045;-64
2022/07/30 02:08:08;;;;;;;9.68;7.55;;;;;;;;;;5008648;28;20512;-64
2022/07/30 02:10:37;;;;;;;7.90;6.53;;;;;;;;;;4999500;28;20041;-64
2022/07/30 02:13:06;;;;;;;9.48;6.40;;;;;;;;;;5025681;28;20049;-64
2022/07/30 02:15:36;;;;;;;10.13;6.90;;;;;;;;;;5024892;28;20103;-64
2022/07/30 02:18:07;;;;;;;9.77;6.07;;;;;;;;;;5020597;28;20385;-64
2022/07/30 02:20:34;;;;;;;11.40;6.97;;;;;;;;;;5020429;28;20114;-64
2022/07/30 02:23:03;;;;;;;12.32;7.75;;;;;;;;;;5019643;28;20497;-64
2022/07/30 02:25:32;;;;;;;10.13;7.85;;;;;;;;;;5027987;28;20050;-64
2022/07/30 02:28:02;;;;;;;10.52;7.22;;;;;;;;;;5020213;28;20050;-65
2022/07/30 02:30:31;;;;;;;11.45;7.72;;;;;;;;;;5025251;28;20103;-65
2022/07/30 02:33:02;;;;;;;10.07;7.75;;;;;;;;;;5027555;28;20143;-64
2022/07/30 02:35:32;;;;;;;11.75;8.43;;;;;;;;;;5024774;28;20057;-64
2022/07/30 02:38:00;;;;;;;13.02;7.90;;;;;;;;;;5028076;28;20133;-64
2022/07/30 02:40:29;;;;;;;11.57;7.60;;;;;;;;;;5027192;28;20555;-64
2022/07/30 02:42:57;;;;;;;11.80;7.25;;;;;;;;;;5019675;28;20609;-64
2022/07/30 02:45:25;;;;;;;15.13;8.35;;;;;;;;;;5007255;28;20049;-64
2022/07/30 02:47:54;;;;;;;11.57;7.35;;;;;;;;;;5027817;28;20085;-64
2022/07/30 02:50:23;;;;;;;13.35;7.18;;;;;;;;;;5022577;28;20128;-64
2022/07/30 02:52:52;;;;;;;10.80;7.70;;;;;;;;;;5005124;28;20159;-64
2022/07/30 02:55:20;;;;;;;11.73;7.60;;;;;;;;;;5003265;28;20101;-64
2022/07/30 02:57:47;;;;;;;11.00;7.43;;;;;;;;;;5001622;28;20500;-64
2022/07/30 03:00:15;;;;;;;10.75;8.18;;;;;;;;;;5008087;28;20077;-64
2022/07/30 03:02:44;;;;;;;13.95;9.02;;;;;;;;;;5006824;28;20150;-64
2022/07/30 03:05:12;;;;;;;10.75;7.68;;;;;;;;;;5007686;28;20096;-64
2022/07/30 03:07:40;;;;;;;15.70;8.15;;;;;;;;;;5006941;28;20141;-64
2022/07/30 03:10:10;;;;;;;13.02;8.88;;;;;;;;;;5007103;28;20046;-64
2022/07/30 03:12:38;;;;;;;8.85;7.40;;;;;;;;;;5006975;28;20057;-64
2022/07/30 03:15:05;;;;;;;12.65;7.68;;;;;;;;;;5007465;28;20050;-64
2022/07/30 03:17:35;;;;;;;12.02;7.70;;;;;;;;;;5007601;28;20647;-64
2022/07/30 03:20:03;;;;;;;13.98;8.30;;;;;;;;;;4998035;28;20054;-64
2022/07/30 03:22:32;;;;;;;11.07;7.63;;;;;;;;;;5000804;28;20137;-64
2022/07/30 03:25:00;;;;;;;10.85;7.05;;;;;;;;;;5007082;28;20057;-64
2022/07/30 03:27:29;;;;;;;11.00;7.82;;;;;;;;;;5005251;28;20056;-64
2022/07/30 03:29:56;;;;;;;11.15;8.00;;;;;;;;;;5001288;28;20058;-64
2022/07/30 03:32:24;;;;;;;15.07;8.82;;;;;;;;;;5001990;28;20373;-64
2022/07/30 03:34:53;;;;;;;11.23;8.32;;;;;;;;;;5006309;28;20066;-64
2022/07/30 03:37:20;;;;;;;14.80;9.02;;;;;;;;;;5007684;28;20049;-64
2022/07/30 03:39:47;;;;;;;15.70;9.30;;;;;;;;;;5006054;28;20492;-64
2022/07/30 03:42:15;;;;;;;13.40;8.98;;;;;;;;;;5005786;28;20108;-64
2022/07/30 03:44:45;;;;;;;12.43;8.52;;;;;;;;;;5004871;28;20054;-64
2022/07/30 03:47:13;;;;;;;13.65;8.63;;;;;;;;;;5007203;28;20477;-64
2022/07/30 03:49:40;;;;;;;18.83;9.20;;;;;;;;;;5006316;28;20077;-64
2022/07/30 03:52:08;;;;;;;14.23;9.32;;;;;;;;;;5010022;28;20053;-64
2022/07/30 03:54:35;;;;;;;14.52;9.40;;;;;;;;;;5021186;28;20381;-64
2022/07/30 03:57:05;;;;;;;14.73;9.23;;;;;;;;;;5021499;28;20142;-64
2022/07/30 03:59:33;;;;;;;13.82;10.05;;;;;;;;;;5020321;28;20085;-64
2022/07/30 04:02:03;;;;;;;16.33;8.55;;;;;;;;;;5012580;28;20128;-64
2022/07/30 04:04:30;;;;;;;14.52;8.65;;;;;;;;;;5003382;28;20054;-64
2022/07/30 04:06:58;;;;;;;14.35;8.82;;;;;;;;;;5018540;28;20057;-64
2022/07/30 04:09:25;;;;;;;12.30;7.80;;;;;;;;;;5026630;28;20484;-64
2022/07/30 04:11:52;;;;;;;9.82;7.20;;;;;;;;;;5023768;28;20063;-64
2022/07/30 04:14:20;;;;;;;11.82;7.13;;;;;;;;;;5013671;28;20090;-64
2022/07/30 04:16:48;;;;;;;14.50;8.35;;;;;;;;;;5001618;28;20588;-64
2022/07/30 04:19:20;;;;;;;17.70;7.93;;;;;;;;;;5016453;28;20050;-64
2022/07/30 04:21:48;;;;;;;11.13;7.57;;;;;;;;;;5023922;28;20647;-64
2022/07/30 04:24:16;;;;;;;18.42;7.50;;;;;;;;;;5022666;28;20060;-64
2022/07/30 04:26:44;;;;;;;11.85;6.50;;;;;;;;;;5020173;28;20041;-64
2022/07/30 04:29:11;;;;;;;16.30;6.18;;;;;;;;;;5020079;28;20052;-65
2022/07/30 04:31:39;;;;;;;15.30;5.78;;;;;;;;;;5020285;28;20115;-64
2022/07/30 04:34:06;;;;;;;11.00;5.50;;;;;;;;;;5024955;28;20045;-64
2022/07/30 04:36:35;;;;;;;11.85;5.47;;;;;;;;;;5019874;28;20046;-64
2022/07/30 04:39:02;;;;;;;7.70;4.72;;;;;;;;;;5020374;28;20081;-64
2022/07/30 04:41:30;;;;;;;11.32;5.05;;;;;;;;;;5020083;28;20111;-64
2022/07/30 04:43:57;;;;;;;8.80;4.60;;;;;;;;;;5003766;28;20443;-64
2022/07/30 04:46:24;;;;;;;6.65;4.00;;;;;;;;;;4997346;28;20103;-64
2022/07/30 04:48:51;;;;;;;25.25;5.47;;;;;;;;;;5002484;28;20107;-64
2022/07/30 04:51:20;;;;;;;40.30;5.07;;;;;;;;;;5018543;28;20120;-64
2022/07/30 04:53:49;;;;;;;19.10;5.88;;;;;;;;;;5019691;28;20052;-64
2022/07/30 04:56:17;;;;;;;19.02;6.88;;;;;;;;;;5021209;28;20151;-64
2022/07/30 04:58:45;;;;;;;16.88;5.95;;;;;;;;;;5019199;28;20072;-64
2022/07/30 05:01:12;;;;;;;13.25;5.70;;;;;;;;;;5022036;28;20050;-64
2022/07/30 05:03:40;;;;;;;14.32;5.47;;;;;;;;;;5018055;28;20049;-64
2022/07/30 05:06:08;;;;;;;13.90;5.63;;;;;;;;;;5020613;28;20049;-65
2022/07/30 05:08:35;;;;;;;15.00;6.15;;;;;;;;;;5012954;28;20057;-64
2022/07/30 05:11:04;;;;;;;9.25;4.60;;;;;;;;;;5016159;28;20045;-64
2022/07/30 05:13:31;;;;;;;13.57;5.63;;;;;;;;;;5006116;28;20053;-64
2022/07/30 05:15:59;;;;;;;19.52;6.65;;;;;;;;;;4996405;28;20099;-64
2022/07/30 05:18:26;;;;;;;15.75;5.85;;;;;;;;;;5000635;28;20891;-64
2022/07/30 05:20:53;;;;;;;15.32;6.15;;;;;;;;;;5015131;28;20056;-64
2022/07/30 05:23:20;;;;;;;14.15;6.43;;;;;;;;;;5021816;28;20404;-64
2022/07/30 05:25:47;;;;;;;11.32;4.97;;;;;;;;;;5015662;28;20054;-65
2022/07/30 05:28:16;;;;;;;18.58;5.85;;;;;;;;;;5016318;28;20054;-64
2022/07/30 05:30:43;;;;;;;18.20;6.43;;;;;;;;;;5000432;28;20186;-64
2022/07/30 05:33:10;;;;;;;21.98;6.88;;;;;;;;;;5015176;28;20447;-64
2022/07/30 05:35:37;;;;;;;27.90;6.20;;;;;;;;;;5016466;28;20053;-64
2022/07/30 05:38:05;;;;;;;13.70;5.88;;;;;;;;;;5019993;28;20050;-64
2022/07/30 05:40:32;;;;;;;14.65;6.05;;;;;;;;;;5020588;28;20053;-64
2022/07/30 05:42:59;;;;;;;17.23;6.10;;;;;;;;;;5023066;28;20056;-64
2022/07/30 05:45:28;;;;;;;20.08;6.38;;;;;;;;;;4996240;28;20532;-64
2022/07/30 05:47:56;;;;;;;13.77;6.63;;;;;;;;;;5015806;28;20085;-64
2022/07/30 05:50:23;;;;;;;15.20;6.00;;;;;;;;;;5015676;28;20533;-65
2022/07/30 05:52:50;;;;;;;15.02;5.97;;;;;;;;;;5018928;28;20513;-64
2022/07/30 05:55:17;;;;;;;17.67;6.35;;;;;;;;;;5022863;28;20065;-64
2022/07/30 05:57:45;;;;;;;15.77;5.45;;;;;;;;;;4995848;28;20056;-64
2022/07/30 06:00:13;;;;;;;17.05;5.65;;;;;;;;;;5025231;28;20060;-64
2022/07/30 06:02:41;;;;;;;19.55;5.40;;;;;;;;;;5018048;28;20452;-64
2022/07/30 06:05:09;;;;;;;13.35;5.57;;;;;;;;;;5019205;28;20045;-65
2022/07/30 06:07:36;;;;;;;16.60;5.50;;;;;;;;;;5023462;28;20050;-64
2022/07/30 06:10:03;;;;;;;20.75;6.32;;;;;;;;;;5017865;28;20512;-64
2022/07/30 06:12:31;;;;;;;14.98;5.97;;;;;;;;;;5024002;28;20345;-64
2022/07/30 06:14:58;;;;;;;14.95;5.90;;;;;;;;;;5021007;28;20064;-64
2022/07/30 06:17:26;;;;;;;18.98;6.05;;;;;;;;;;5021858;28;20058;-65
2022/07/30 06:19:54;;;;;;;12.82;5.28;;;;;;;;;;4999739;28;20062;-65
2022/07/30 06:22:21;;;;;;;13.85;5.85;;;;;;;;;;5008600;28;20061;-64
2022/07/30 06:24:49;;;;;;;13.82;5.82;;;;;;;;;;5019843;28;20042;-65
2022/07/30 06:27:16;;;;;;;15.15;5.20;;;;;;;;;;5026673;28;20061;-64
2022/07/30 06:29:43;;;;;;;21.33;5.18;;;;;;;;;;5017205;28;20046;-64
2022/07/30 06:32:10;;;;;;;16.20;5.40;;;;;;;;;;5009054;28;20143;-64
2022/07/30 06:34:38;;;;;;;19.08;5.45;;;;;;;;;;5023511;28;20053;-65
2022/07/30 06:37:06;;;;;;;14.15;4.82;;;;;;;;;;5019090;28;20049;-65
2022/07/30 06:39:33;;;;;;;17.13;5.32;;;;;;;;;;5023684;28;20042;-64
2022/07/30 06:42:01;;;;;;;11.65;4.90;;;;;;;;;;5024100;28;20471;-65
2022/07/30 06:44:28;;;;;;;15.48;4.88;;;;;;;;;;5024317;28;20476;-65
2022/07/30 06:46:55;;;;;;;17.23;5.05;;;;;;;;;;5026852;28;20056;-64
2022/07/30 06:49:22;;;;;;;17.65;4.38;;;;;;;;;;5024639;28;20555;-65
2022/07/30 06:51:50;;;;;;;11.55;4.35;;;;;;;;;;5017771;28;20061;-65
2022/07/30 06:54:18;;;;;;;11.23;4.50;;;;;;;;;;5024395;28;20053;-64
2022/07/30 06:56:46;;;;;;;11.05;4.05;;;;;;;;;;5021462;28;20060;-65
2022/07/30 06:59:13;;;;;;;8.10;3.75;;;;;;;;;;5022326;28;20519;-64
2022/07/30 07:01:40;;;;;;;13.25;4.60;;;;;;;;;;5009357;28;20103;-64
2022/07/30 07:04:07;;;;;;;14.30;3.85;;;;;;;;;;5017922;28;20053;-64
2022/07/30 07:06:35;;;;;;;11.82;3.80;;;;;;;;;;5005793;28;20065;-64
2022/07/30 07:09:02;;;;;;;13.90;3.83;;;;;;;;;;5025420;28;20155;-64
2022/07/30 07:11:30;;;;;;;8.88;3.40;;;;;;;;;;5021963;28;20056;-64
2022/07/30 07:13:58;;;;;;;12.15;3.90;;;;;;;;;;5020267;28;20050;-64
2022/07/30 07:16:25;;;;;;;12.00;3.78;;;;;;;;;;5023072;28;20053;-64
2022/07/30 07:18:52;;;;;;;7.53;3.35;;;;;;;;;;5013969;28;20053;-64
2022/07/30 07:21:20;;;;;;;12.80;3.72;;;;;;;;;;5015373;28;20046;-64
2022/07/30 07:23:48;;;;;;;14.75;3.75;;;;;;;;;;5023343;28;20052;-64
2022/07/30 07:26:15;;;;;;;14.13;4.28;;;;;;;;;;5017933;28;20045;-65
2022/07/30 07:28:44;;;;;;;11.10;3.72;;;;;;;;;;5005645;28;20136;-65
2022/07/30 07:31:11;;;;;;;12.45;3.63;;;;;;;;;;5018970;28;20045;-64
2022/07/30 07:33:40;;;;;;;15.98;4.05;;;;;;;;;;5024463;28;20053;-64
2022/07/30 07:36:07;;;;;;;14.68;3.80;;;;;;;;;;5025595;28;20071;-64
2022/07/30 07:38:35;;;;;;;10.88;3.50;;;;;;;;;;5024593;28;20510;-65
2022/07/30 07:41:02;;;;;;;9.00;3.75;;;;;;;;;;5021445;28;20088;-65
2022/07/30 07:43:29;;;;;;;14.70;4.53;;;;;;;;;;5017920;28;20138;-64
2022/07/30 07:45:58;;;;;;;13.13;3.50;;;;;;;;;;5019540;28;20571;-64
2022/07/30 07:48:25;;;;;;;12.65;4.00;;;;;;;;;;5021372;28;20057;-65
2022/07/30 07:50:52;;;;;;;14.48;3.70;;;;;;;;;;5021248;28;20156;-64
2022/07/30 07:53:20;;;;;;;10.00;3.15;;;;;;;;;;5024817;28;20057;-64
2022/07/30 07:55:47;;;;;;;11.88;3.25;;;;;;;;;;5024801;28;20056;-64
2022/07/30 07:58:14;;;;;;;11.82;3.30;;;;;;;;;;5020849;28;20053;-65
2022/07/30 08:00:41;;;;;;;9.90;2.85;;;;;;;;;;5014357;28;20104;-65
2022/07/30 08:03:10;;;;;;;13.73;3.33;;;;;;;;;;5025478;28;20057;-64
2022/07/30 08:05:37;;;;;;;9.35;3.40;;;;;;;;;;5025007;28;20099;-65
2022/07/30 08:08:04;;;;;;;11.05;3.75;;;;;;;;;;5016736;28;20060;-64
2022/07/30 08:10:32;;;;;;;7.78;3.13;;;;;;;;;;5024280;28;20053;-65
2022/07/30 08:13:01;;;;;;;7.97;3.63;;;;;;;;;;5024535;28;20057;-64
2022/07/30 08:15:28;;;;;;;9.30;3.40;;;;;;;;;;5014821;28;20720;-65
2022/07/30 08:17:55;;;;;;;9.55;3.65;;;;;;;;;;5020650;28;20060;-65
2022/07/30 08:20:24;;;;;;;9.40;3.53;;;;;;;;;;5018775;28;20540;-65
2022/07/30 08:22:52;;;;;;;12.68;3.38;;;;;;;;;;5024128;28;20054;-65
2022/07/30 08:25:19;;;;;;;9.50;2.90;;;;;;;;;;5023602;28;20512;-65
2022/07/30 08:27:46;;;;;;;9.00;3.30;;;;;;;;;;5017163;28;20053;-65
2022/07/30 08:30:14;;;;;;;9.80;3.33;;;;;;;;;;5018724;28;20053;-65
2022/07/30 08:32:41;;;;;;;7.85;2.95;;;;;;;;;;5023278;28;20049;-65
2022/07/30 08:35:08;;;;;;;12.82;3.03;;;;;;;;;;5024445;28;20361;-64
2022/07/30 08:37:39;;;;;;;7.03;2.63;;;;;;;;;;5023876;28;20484;-65
2022/07/30 08:40:07;;;;;;;8.80;3.08;;;;;;;;;;5016290;28;20421;-64
2022/07/30 08:42:35;;;;;;;9.95;3.20;;;;;;;;;;5022947;28;20049;-65
2022/07/30 08:45:02;;;;;;;10.93;2.67;;;;;;;;;;5003873;28;20425;-65
2022/07/30 08:47:32;;;;;;;11.65;3.17;;;;;;;;;;5023667;28;20045;-64
2022/07/30 08:50:03;;;;;;;10.77;3.60;;;;;;;;;;5025444;28;20693;-64
2022/07/30 08:52:31;;;;;;;10.80;3.33;;;;;;;;;;5001855;28;20631;-65
2022/07/30 08:55:00;;;;;;;8.60;2.78;;;;;;;;;;4998212;28;20054;-65
2022/07/30 08:57:29;;;;;;;7.90;2.88;;;;;;;;;;4998578;28;20561;-65
2022/07/30 08:59:57;;;;;;;9.10;2.85;;;;;;;;;;4999744;28;20552;-65
2022/07/30 09:02:24;;;;;;;6.28;2.70;;;;;;;;;;4996029;28;20413;-65
2022/07/30 09:04:51;;;;;;;11.57;3.80;;;;;;;;;;5001642;28;20125;-65
2022/07/30 09:07:19;;;;;;;10.68;3.03;;;;;;;;;;5001336;28;20046;-65
2022/07/30 09:09:46;;;;;;;8.52;3.70;;;;;;;;;;4997498;28;20054;-65
2022/07/30 09:12:32;;;;;;;11.10;3.55;;;;;;;;;;5000822;28;20097;-65
2022/07/30 09:15:03;;;;;;;8.27;2.83;;;;;;;;;;5001031;28;20050;-65
2022/07/30 09:17:43;;;;;;;8.43;3.20;;;;;;;;;;5005143;28;20558;-65
2022/07/30 09:20:11;;;;;;;8.93;3.50;;;;;;;;;;4997989;28;20049;-65
2022/07/30 09:22:45;;;;;;;10.38;3.20;;;;;;;;;;4998228;28;20046;-65
2022/07/30 09:25:13;;;;;;;5.82;2.65;;;;;;;;;;4999674;28;20541;-65
2022/07/30 09:27:47;;;;;;;7.47;3.05;;;;;;;;;;4994044;28;20054;-65
2022/07/30 09:30:17;;;;;;;8.05;2.97;;;;;;;;;;4997610;28;20054;-65
2022/07/30 09:32:51;;;;;;;10.60;4.00;;;;;;;;;;4995925;28;20050;-65
2022/07/30 09:35:18;;;;;;;8.90;3.20;;;;;;;;;;4997617;28;20129;-65
2022/07/30 09:37:45;;;;;;;9.45;3.00;;;;;;;;;;4997781;28;20112;-65
2022/07/30 09:40:14;;;;;;;7.80;3.30;;;;;;;;;;4997432;28;20053;-65
2022/07/30 09:42:41;;;;;;;10.77;3.30;;;;;;;;;;5002461;28;20476;-65
2022/07/30 09:45:10;;;;;;;9.20;2.90;;;;;;;;;;4995728;28;20054;-65
2022/07/30 09:47:39;;;;;;;8.52;2.67;;;;;;;;;;4996288;28;20054;-65
2022/07/30 09:50:07;;;;;;;8.80;2.90;;;;;;;;;;4999316;28;20054;-64
2022/07/30 09:52:34;;;;;;;7.50;2.75;;;;;;;;;;5017813;28;20526;-65
2022/07/30 09:55:01;;;;;;;10.30;3.40;;;;;;;;;;5022004;28;20814;-64
2022/07/30 09:57:28;;;;;;;7.40;2.70;;;;;;;;;;5024257;28;20056;-64
2022/07/30 09:59:56;;;;;;;9.30;2.50;;;;;;;;;;5023856;28;20045;-64
2022/07/30 10:02:29;;;;;;;4.05;2.08;;;;;;;;;;5010158;28;20064;-65
2022/07/30 10:04:56;;;;;;;;;;;;;;;;;;5009823;28;20845;-65
2022/07/30 10:07:25;;;;;;;7.93;1.98;;;;;;;;;;5023725;28;19940;-65
2022/07/30 10:09:53;;;;;;;10.00;2.55;;;;;;;;;;5019925;28;20065;-65
2022/07/30 10:12:21;;;;;;;8.57;2.85;;;;;;;;;;5005343;28;20052;-65
2022/07/30 10:14:50;;;;;;;7.38;2.70;;;;;;;;;;5018399;28;20061;-65
2022/07/30 10:17:17;;;;;;;7.57;2.33;;;;;;;;;;5016486;28;20049;-64
2022/07/30 10:19:44;;;;;;;7.13;2.40;;;;;;;;;;5015869;28;20087;-65
2022/07/30 10:22:13;;;;;;;9.77;2.92;;;;;;;;;;5005035;28;20124;-64
2022/07/30 10:24:42;;;;;;;8.85;2.50;;;;;;;;;;5023635;28;20053;-65
2022/07/30 10:27:09;;;;;;;9.80;2.80;;;;;;;;;;5021994;28;20053;-65
2022/07/30 10:29:38;;;;;;;8.82;2.80;;;;;;;;;;5017557;28;20073;-64
2022/07/30 10:32:05;;;;;;;12.20;2.78;;;;;;;;;;5003275;28;20085;-65
2022/07/30 10:34:33;;;;;;;8.20;2.88;;;;;;;;;;5017875;28;20056;-65
2022/07/30 10:37:01;;;;;;;5.65;2.60;;;;;;;;;;5020380;28;20061;-65
2022/07/30 10:39:30;;;;;;;7.82;2.75;;;;;;;;;;5013621;28;20709;-65
2022/07/30 10:42:04;;;;;;;7.20;2.88;;;;;;;;;;5014710;28;20050;-65
2022/07/30 10:44:58;;;;;;;7.40;2.28;;;;;;;;;;5022489;28;20068;-65
2022/07/30 10:47:26;;;;;;;7.82;2.20;;;;;;;;;;4973680;28;20057;-65
2022/07/30 10:50:08;;;;;;;6.50;2.33;;;;;;;;;;5023441;28;20085;-65
2022/07/30 10:52:45;;;;;;;7.40;2.50;;;;;;;;;;5000854;28;20058;-65
2022/07/30 10:55:13;;;;;;;8.48;2.67;;;;;;;;;;5007979;28;20075;-65
2022/07/30 10:57:55;;;;;;;5.65;2.28;;;;;;;;;;5006985;28;20049;-65
2022/07/30 11:00:24;;;;;;;9.07;2.72;;;;;;;;;;5005939;28;20449;-65
2022/07/30 11:03:10;;;;;;;9.90;2.45;;;;;;;;;;5000057;28;20061;-65
2022/07/30 11:05:37;;;;;;;10.80;2.10;;;;;;;;;;5007251;28;20054;-65
2022/07/30 11:08:19;;;;;;;7.88;2.17;;;;;;;;;;5006996;28;20054;-65
2022/07/30 11:10:46;;;;;;;5.82;2.30;;;;;;;;;;5005860;28;20771;-65
2022/07/30 11:13:14;;;;;;;4.60;2.08;;;;;;;;;;5006513;28;20096;-65
2022/07/30 11:15:55;;;;;;;8.23;2.88;;;;;;;;;;5005799;28;20493;-66
2022/07/30 11:18:23;;;;;;;5.93;2.50;;;;;;;;;;5004953;28;20049;-65
2022/07/30 11:21:09;;;;;;;6.50;2.25;;;;;;;;;;5007276;28;20136;-65
2022/07/30 11:23:38;;;;;;;6.97;2.20;;;;;;;;;;5006271;28;20053;-66
2022/07/30 11:26:05;;;;;;;8.70;2.33;;;;;;;;;;5006320;28;20157;-66
2022/07/30 11:28:34;;;;;;;7.30;2.10;;;;;;;;;;5005326;28;20054;-66
2022/07/30 11:31:03;;;;;;;5.82;1.95;;;;;;;;;;5006790;28;20158;-65
2022/07/30 11:33:30;;;;;;;7.18;2.05;;;;;;;;;;5004258;28;20112;-66
2022/07/30 11:36:13;;;;;;;2.88;1.33;;;;;;;;;;5006639;28;20053;-65
2022/07/30 11:38:53;;;;;;;5.32;1.58;;;;;;;;;;5007444;28;20497;-66
2022/07/30 11:41:20;;;;;;;5.80;1.83;;;;;;;;;;5003976;28;20050;-65
2022/07/30 11:43:47;;;;;;;5.10;2.28;;;;;;;;;;5007584;28;20501;-65
2022/07/30 11:46:21;;;;;;;4.28;1.75;;;;;;;;;;5003388;28;20448;-66
2022/07/30 11:48:56;;;;;;;7.65;1.80;;;;;;;;;;5005124;28;20042;-66
2022/07/30 11:51:23;;;;;;;6.07;2.33;;;;;;;;;;5000471;28;20054;-66
2022/07/30 11:54:00;;;;;;;3.35;1.70;;;;;;;;;;5008912;28;20386;-66
2022/07/30 11:56:28;;;;;;;6.75;1.90;;;;;;;;;;5002115;28;20052;-66
2022/07/30 11:59:01;;;;;;;7.88;1.90;;;;;;;;;;4982489;28;20061;-66
2022/07/30 12:01:32;;;;;;;3.40;1.60;;;;;;;;;;5003313;28;20081;-66
2022/07/30 12:04:02;;;;;;;5.25;1.70;;;;;;;;;;5001511;28;20549;-66
2022/07/30 12:06:30;;;;;;;4.15;1.98;;;;;;;;;;4991517;28;20460;-66
2022/07/30 12:08:58;;;;;;;10.07;1.92;;;;;;;;;;5001305;28;20493;-65
2022/07/30 12:11:25;;;;;;;5.20;2.08;;;;;;;;;;4998341;28;20046;-66
2022/07/30 12:13:56;;;;;;;7.13;1.50;;;;;;;;;;4999212;28;20089;-66
2022/07/30 12:16:23;;;;;;;5.13;1.40;;;;;;;;;;5003901;28;20053;-66
2022/07/30 12:18:52;;;;;;;5.30;1.75;;;;;;;;;;5002638;28;20050;-66
2022/07/30 12:21:20;;;;;;;5.35;1.50;;;;;;;;;;5000916;28;20116;-65
2022/07/30 12:23:54;;;;;;;4.28;1.85;;;;;;;;;;5006177;28;20846;-66
2022/07/30 12:26:22;;;;;;;4.65;1.92;;;;;;;;;;5011315;28;20690;-65
2022/07/30 12:28:49;;;;;;;2.85;1.17;;;;;;;;;;4998719;28;20050;-66
2022/07/30 12:31:16;;;;;;;3.58;1.40;;;;;;;;;;4997675;28;20053;-66
2022/07/30 12:33:44;;;;;;;3.95;1.60;;;;;;;;;;5004215;28;20045;-66
2022/07/30 12:36:23;;;;;;;3.65;1.40;;;;;;;;;;4997042;28;20490;-66
2022/07/30 12:38:53;;;;;;;2.30;1.23;;;;;;;;;;4999537;28;20604;-65
2022/07/30 12:41:20;;;;;;;3.05;1.40;;;;;;;;;;5001898;28;20057;-66
2022/07/30 12:43:49;;;;;;;3.75;1.50;;;;;;;;;;5007555;28;20042;-66
2022/07/30 12:46:17;;;;;;;3.28;1.30;;;;;;;;;;5001428;28;20504;-66
2022/07/30 12:48:51;;;;;;;3.38;1.27;;;;;;;;;;4985120;28;20485;-66
2022/07/30 12:51:20;;;;;;;3.15;1.17;;;;;;;;;;5002884;28;20061;-66
2022/07/30 12:53:47;;;;;;;4.18;1.48;;;;;;;;;;5015840;28;20533;-66
2022/07/30 12:56:15;;;;;;;2.35;1.17;;;;;;;;;;5003983;28;20520;-66
2022/07/30 12:58:43;;;;;;;3.03;1.23;;;;;;;;;;5019829;28;20057;-66
2022/07/30 13:01:10;;;;;;;3.22;1.30;;;;;;;;;;5019955;28;20053;-66
2022/07/30 13:03:41;;;;;;;2.35;1.20;;;;;;;;;;5017649;28;20139;-66
2022/07/30 13:06:13;;;;;;;1.98;1.10;;;;;;;;;;5017150;28;20501;-66
2022/07/30 13:08:53;;;;;;;3.45;1.20;;;;;;;;;;5003107;28;20057;-66
2022/07/30 13:11:21;;;;;;;3.28;1.52;;;;;;;;;;5018313;28;20064;-66
2022/07/30 13:13:48;;;;;;;2.33;1.02;;;;;;;;;;5021773;28;20061;-66
2022/07/30 13:16:16;;;;;;;1.85;1.00;;;;;;;;;;5015604;28;20149;-66
2022/07/30 13:18:44;;;;;;;2.60;1.15;;;;;;;;;;5019007;28;20139;-66
2022/07/30 13:21:11;;;;;;;1.45;1.00;;;;;;;;;;5007892;28;20061;-65
2022/07/30 13:23:38;;;;;;;2.25;1.17;;;;;;;;;;5020257;28;20068;-65
2022/07/30 13:26:11;;;;;;;2.53;1.10;;;;;;;;;;5022200;28;20052;-65
2022/07/30 13:28:38;;;;;;;2.70;1.20;;;;;;;;;;5029179;28;20049;-66
2022/07/30 13:31:06;;;;;;;4.45;1.20;;;;;;;;;;5030005;28;20107;-66
2022/07/30 13:33:33;;;;;;;2.50;1.08;;;;;;;;;;5027060;28;20049;-65
2022/07/30 13:36:01;;;;;;;3.83;1.30;;;;;;;;;;5024107;28;20064;-66
2022/07/30 13:38:28;;;;;;;4.90;1.15;;;;;;;;;;5028301;28;20609;-65
2022/07/30 13:40:56;;;;;;;1.80;1.08;;;;;;;;;;5026670;28;20186;-65
2022/07/30 13:43:25;;;;;;;3.33;1.30;;;;;;;;;;5026778;28;20041;-65
2022/07/30 13:45:52;;;;;;;2.05;1.20;;;;;;;;;;5025797;28;20769;-65
2022/07/30 13:48:19;;;;;;;6.93;1.40;;;;;;;;;;5023855;28;20053;-65
2022/07/30 13:50:47;;;;;;;3.15;1.10;;;;;;;;;;5015455;28;20408;-65
2022/07/30 13:53:14;;;;;;;2.08;1.00;;;;;;;;;;5019416;28;20049;-65
2022/07/30 13:55:41;;;;;;;4.63;1.20;;;;;;;;;;5019173;28;20053;-65
2022/07/30 13:58:09;;;;;;;2.95;1.02;;;;;;;;;;5008589;28;20772;-65
2022/07/30 14:00:39;;;;;;;3.33;1.02;;;;;;;;;;5016731;28;20049;-65
2022/07/30 14:03:06;;;;;;;5.53;1.35;;;;;;;;;;5022273;28;20053;-65
2022/07/30 14:05:34;;;;;;;2.42;0.90;;;;;;;;;;5028402;28;20049;-65
2022/07/30 14:08:02;;;;;;;2.53;0.95;;;;;;;;;;5021278;28;20115;-65
2022/07/30 14:10:29;;;;;;;2.45;0.98;;;;;;;;;;5027145;28;20108;-65
2022/07/30 14:12:57;;;;;;;3.17;1.20;;;;;;;;;;5029130;28;20152;-65
2022/07/30 14:15:24;;;;;;;2.78;0.98;;;;;;;;;;5022252;28;20045;-66
2022/07/30 14:17:53;;;;;;;2.15;1.10;;;;;;;;;;5018835;28;20064;-65
2022/07/30 14:20:20;;;;;;;5.63;1.08;;;;;;;;;;5021482;28;20049;-65
2022/07/30 14:22:47;;;;;;;4.93;0.93;;;;;;;;;;5026362;28;20060;-65
2022/07/30 14:25:15;;;;;;;2.83;0.90;;;;;;;;;;5027224;28;20056;-66
2022/07/30 14:27:42;;;;;;;3.72;0.95;;;;;;;;;;5025516;28;20451;-65
2022/07/30 14:30:10;;;;;;;6.68;1.15;;;;;;;;;;5025804;28;20056;-64
2022/07/30 14:32:37;;;;;;;3.42;1.30;;;;;;;;;;5024713;28;20056;-65
2022/07/30 14:35:08;;;;;;;2.50;0.98;;;;;;;;;;5025500;28;20444;-65
2022/07/30 14:37:35;;;;;;;3.92;1.20;;;;;;;;;;5020209;28;20138;-65
2022/07/30 14:40:02;;;;;;;5.75;1.30;;;;;;;;;;5006535;28;20069;-65
2022/07/30 14:42:29;;;;;;;2.05;1.00;;;;;;;;;;5025936;28;20084;-66
2022/07/30 14:44:57;;;;;;;3.42;1.00;;;;;;;;;;5023783;28;20137;-66